sensor_id;sensor_type;location;lat;lon;timestamp;temperature;humidity
52381;DHT22;38310;52.796;6.942;2023-11-22T00:00:29;2.00;99.90
52381;DHT22;38310;52.796;6.942;2023-11-22T00:02:56;1.60;99.90
52381;DHT22;38310;52.796;6.942;2023-11-22T00:05:22;1.60;99.90
52381;DHT22;38310;52.796;6.942;2023-11-22T00:07:47;1.50;99.90
52381;DHT22;38310;52.796;6.942;2023-11-22T00:10:13;1.60;99.90
52381;DHT22;38310;52.796;6.942;2023-11-22T00:12:42;1.60;99.90
52381;DHT22;38310;52.796;6.942;2023-11-22T00:15:08;2.50;99.90
52381;DHT22;38310;52.796;6.942;2023-11-22T00:17:35;1.50;99.90
52381;DHT22;38310;52.796;6.942;2023-11-22T00:20:02;1.50;99.90
52381;DHT22;38310;52.796;6.942;2023-11-22T00:22:34;1.50;99.90
52381;DHT22;38310;52.796;6.942;2023-11-22T00:25:03;1.90;99.90
52381;DHT22;38310;52.796;6.942;2023-11-22T00:27:29;1.40;99.90
52381;DHT22;38310;52.796;6.942;2023-11-22T00:29:55;1.40;99.90
52381;DHT22;38310;52.796;6.942;2023-11-22T00:32:21;1.40;99.90
52381;DHT22;38310;52.796;6.942;2023-11-22T00:34:47;2.50;99.90
52381;DHT22;38310;52.796;6.942;2023-11-22T00:37:13;1.30;99.90
52381;DHT22;38310;52.796;6.942;2023-11-22T00:39:39;1.30;99.90
52381;DHT22;38310;52.796;6.942;2023-11-22T00:42:05;1.40;99.90
52381;DHT22;38310;52.796;6.942;2023-11-22T00:44:31;1.30;99.90
52381;DHT22;38310;52.796;6.942;2023-11-22T00:46:57;2.50;99.90
52381;DHT22;38310;52.796;6.942;2023-11-22T00:49:23;1.30;99.90
52381;DHT22;38310;52.796;6.942;2023-11-22T00:51:49;1.30;99.90
52381;DHT22;38310;52.796;6.942;2023-11-22T00:54:16;1.20;99.90
52381;DHT22;38310;52.796;6.942;2023-11-22T00:56:44;1.20;99.90
52381;DHT22;38310;52.796;6.942;2023-11-22T00:59:10;1.20;99.90
52381;DHT22;38310;52.796;6.942;2023-11-22T01:01:36;1.20;99.90
52381;DHT22;38310;52.796;6.942;2023-11-22T01:04:02;2.30;99.90
52381;DHT22;38310;52.796;6.942;2023-11-22T01:06:27;1.10;99.90
52381;DHT22;38310;52.796;6.942;2023-11-22T01:08:54;1.10;99.90
52381;DHT22;38310;52.796;6.942;2023-11-22T01:11:20;2.30;99.90
52381;DHT22;38310;52.796;6.942;2023-11-22T01:13:46;1.00;99.90
52381;DHT22;38310;52.796;6.942;2023-11-22T01:16:12;2.30;99.90
52381;DHT22;38310;52.796;6.942;2023-11-22T01:18:38;1.00;99.90
52381;DHT22;38310;52.796;6.942;2023-11-22T01:21:04;1.00;99.90
52381;DHT22;38310;52.796;6.942;2023-11-22T01:23:31;1.00;99.90
52381;DHT22;38310;52.796;6.942;2023-11-22T01:26:00;1.30;99.90
52381;DHT22;38310;52.796;6.942;2023-11-22T01:28:26;0.90;99.90
52381;DHT22;38310;52.796;6.942;2023-11-22T01:30:55;0.80;99.90
52381;DHT22;38310;52.796;6.942;2023-11-22T01:33:23;2.30;99.90
52381;DHT22;38310;52.796;6.942;2023-11-22T01:35:49;0.80;99.90
52381;DHT22;38310;52.796;6.942;2023-11-22T01:38:15;0.70;99.90
52381;DHT22;38310;52.796;6.942;2023-11-22T01:40:46;0.70;99.90
52381;DHT22;38310;52.796;6.942;2023-11-22T01:43:18;1.50;99.90
52381;DHT22;38310;52.796;6.942;2023-11-22T01:45:44;0.70;99.90
52381;DHT22;38310;52.796;6.942;2023-11-22T01:48:11;0.70;99.90
52381;DHT22;38310;52.796;6.942;2023-11-22T01:50:41;1.90;99.90
52381;DHT22;38310;52.796;6.942;2023-11-22T01:53:12;1.80;99.90
52381;DHT22;38310;52.796;6.942;2023-11-22T01:55:39;2.10;99.90
52381;DHT22;38310;52.796;6.942;2023-11-22T01:58:06;0.90;99.90
52381;DHT22;38310;52.796;6.942;2023-11-22T02:00:36;1.30;99.90
52381;DHT22;38310;52.796;6.942;2023-11-22T02:03:03;1.00;99.90
52381;DHT22;38310;52.796;6.942;2023-11-22T02:05:29;1.70;99.90
52381;DHT22;38310;52.796;6.942;2023-11-22T02:07:55;0.60;99.90
52381;DHT22;38310;52.796;6.942;2023-11-22T02:10:21;1.20;99.90
52381;DHT22;38310;52.796;6.942;2023-11-22T02:12:49;0.50;99.90
52381;DHT22;38310;52.796;6.942;2023-11-22T02:15:15;2.30;99.90
52381;DHT22;38310;52.796;6.942;2023-11-22T02:17:40;0.50;99.90
52381;DHT22;38310;52.796;6.942;2023-11-22T02:20:07;0.50;99.90
52381;DHT22;38310;52.796;6.942;2023-11-22T02:22:46;0.50;99.90
52381;DHT22;38310;52.796;6.942;2023-11-22T02:25:12;0.40;99.90
52381;DHT22;38310;52.796;6.942;2023-11-22T02:27:38;0.50;99.90
52381;DHT22;38310;52.796;6.942;2023-11-22T02:30:06;1.40;99.90
52381;DHT22;38310;52.796;6.942;2023-11-22T02:32:32;0.50;99.90
52381;DHT22;38310;52.796;6.942;2023-11-22T02:34:59;1.60;99.90
52381;DHT22;38310;52.796;6.942;2023-11-22T02:37:25;-1.20;99.90
52381;DHT22;38310;52.796;6.942;2023-11-22T02:42:22;0.50;99.90
52381;DHT22;38310;52.796;6.942;2023-11-22T02:44:48;2.20;99.90
52381;DHT22;38310;52.796;6.942;2023-11-22T02:47:14;0.40;99.90
52381;DHT22;38310;52.796;6.942;2023-11-22T02:49:40;0.40;99.90
52381;DHT22;38310;52.796;6.942;2023-11-22T02:52:08;0.70;99.90
52381;DHT22;38310;52.796;6.942;2023-11-22T02:54:37;0.30;99.90
52381;DHT22;38310;52.796;6.942;2023-11-22T02:57:08;0.30;99.90
52381;DHT22;38310;52.796;6.942;2023-11-22T02:59:34;0.60;99.90
52381;DHT22;38310;52.796;6.942;2023-11-22T03:02:00;0.30;99.90
52381;DHT22;38310;52.796;6.942;2023-11-22T03:04:27;0.20;99.90
52381;DHT22;38310;52.796;6.942;2023-11-22T03:06:54;0.10;99.90
52381;DHT22;38310;52.796;6.942;2023-11-22T03:09:20;1.80;99.90
52381;DHT22;38310;52.796;6.942;2023-11-22T03:11:48;0.60;99.90
52381;DHT22;38310;52.796;6.942;2023-11-22T03:14:14;0.20;99.90
52381;DHT22;38310;52.796;6.942;2023-11-22T03:16:41;0.20;99.90
52381;DHT22;38310;52.796;6.942;2023-11-22T03:19:08;0.20;99.90
52381;DHT22;38310;52.796;6.942;2023-11-22T03:21:34;0.70;99.90
52381;DHT22;38310;52.796;6.942;2023-11-22T03:24:01;1.90;99.90
52381;DHT22;38310;52.796;6.942;2023-11-22T03:26:29;0.10;99.90
52381;DHT22;38310;52.796;6.942;2023-11-22T03:28:55;0.10;99.90
52381;DHT22;38310;52.796;6.942;2023-11-22T03:31:21;0.10;99.90
52381;DHT22;38310;52.796;6.942;2023-11-22T03:33:47;1.20;99.90
52381;DHT22;38310;52.796;6.942;2023-11-22T03:36:13;0.10;99.90
52381;DHT22;38310;52.796;6.942;2023-11-22T03:38:39;0.10;99.90
52381;DHT22;38310;52.796;6.942;2023-11-22T03:41:05;1.70;99.90
52381;DHT22;38310;52.796;6.942;2023-11-22T03:43:31;-1.50;99.90
52381;DHT22;38310;52.796;6.942;2023-11-22T03:45:57;0.20;99.90
52381;DHT22;38310;52.796;6.942;2023-11-22T03:48:23;2.00;99.90
52381;DHT22;38310;52.796;6.942;2023-11-22T03:50:52;0.10;99.90
52381;DHT22;38310;52.796;6.942;2023-11-22T03:53:18;1.30;99.90
52381;DHT22;38310;52.796;6.942;2023-11-22T03:55:45;0.20;99.90
52381;DHT22;38310;52.796;6.942;2023-11-22T03:58:11;0.50;99.90
52381;DHT22;38310;52.796;6.942;2023-11-22T04:00:37;0.20;99.90
52381;DHT22;38310;52.796;6.942;2023-11-22T04:03:03;0.30;99.90
52381;DHT22;38310;52.796;6.942;2023-11-22T04:05:29;1.80;99.90
52381;DHT22;38310;52.796;6.942;2023-11-22T04:07:55;0.70;99.90
52381;DHT22;38310;52.796;6.942;2023-11-22T04:10:22;0.30;99.90
52381;DHT22;38310;52.796;6.942;2023-11-22T04:12:48;1.30;99.90
52381;DHT22;38310;52.796;6.942;2023-11-22T04:15:14;0.70;99.90
52381;DHT22;38310;52.796;6.942;2023-11-22T04:17:41;0.80;99.90
52381;DHT22;38310;52.796;6.942;2023-11-22T04:20:12;0.30;99.90
52381;DHT22;38310;52.796;6.942;2023-11-22T04:22:44;1.50;99.90
52381;DHT22;38310;52.796;6.942;2023-11-22T04:25:13;0.30;99.90
52381;DHT22;38310;52.796;6.942;2023-11-22T04:27:40;0.40;99.90
52381;DHT22;38310;52.796;6.942;2023-11-22T04:30:07;-1.20;99.90
52381;DHT22;38310;52.796;6.942;2023-11-22T04:32:40;0.20;99.90
52381;DHT22;38310;52.796;6.942;2023-11-22T04:35:06;0.30;99.90
52381;DHT22;38310;52.796;6.942;2023-11-22T04:37:32;0.20;99.90
52381;DHT22;38310;52.796;6.942;2023-11-22T04:39:59;0.10;99.90
52381;DHT22;38310;52.796;6.942;2023-11-22T04:42:26;0.20;99.90
52381;DHT22;38310;52.796;6.942;2023-11-22T04:44:54;1.20;99.90
52381;DHT22;38310;52.796;6.942;2023-11-22T04:47:20;0.20;99.90
52381;DHT22;38310;52.796;6.942;2023-11-22T04:49:47;-0.30;99.90
52381;DHT22;38310;52.796;6.942;2023-11-22T04:52:13;0.40;99.90
52381;DHT22;38310;52.796;6.942;2023-11-22T04:54:40;1.50;99.90
52381;DHT22;38310;52.796;6.942;2023-11-22T04:57:05;0.10;99.90
52381;DHT22;38310;52.796;6.942;2023-11-22T04:59:32;0.10;99.90
52381;DHT22;38310;52.796;6.942;2023-11-22T05:01:57;2.10;99.90
52381;DHT22;38310;52.796;6.942;2023-11-22T05:04:23;0.90;99.90
52381;DHT22;38310;52.796;6.942;2023-11-22T05:06:49;0.40;99.90
52381;DHT22;38310;52.796;6.942;2023-11-22T05:09:15;0.50;99.90
52381;DHT22;38310;52.796;6.942;2023-11-22T05:11:43;0.00;99.90
52381;DHT22;38310;52.796;6.942;2023-11-22T05:14:10;0.00;99.90
52381;DHT22;38310;52.796;6.942;2023-11-22T05:16:36;1.50;99.90
52381;DHT22;38310;52.796;6.942;2023-11-22T05:19:02;0.70;99.90
52381;DHT22;38310;52.796;6.942;2023-11-22T05:21:28;0.00;99.90
52381;DHT22;38310;52.796;6.942;2023-11-22T05:23:54;0.00;99.90
52381;DHT22;38310;52.796;6.942;2023-11-22T05:26:20;-0.10;99.90
52381;DHT22;38310;52.796;6.942;2023-11-22T05:28:47;1.00;99.90
52381;DHT22;38310;52.796;6.942;2023-11-22T05:31:13;0.60;99.90
52381;DHT22;38310;52.796;6.942;2023-11-22T05:33:40;0.20;99.90
52381;DHT22;38310;52.796;6.942;2023-11-22T05:36:06;-0.20;99.90
52381;DHT22;38310;52.796;6.942;2023-11-22T05:38:32;-0.10;99.90
52381;DHT22;38310;52.796;6.942;2023-11-22T05:41:01;-0.10;99.90
52381;DHT22;38310;52.796;6.942;2023-11-22T05:43:27;-0.10;99.90
52381;DHT22;38310;52.796;6.942;2023-11-22T05:45:53;0.00;99.90
52381;DHT22;38310;52.796;6.942;2023-11-22T05:48:19;1.60;99.90
52381;DHT22;38310;52.796;6.942;2023-11-22T05:50:45;0.00;99.90
52381;DHT22;38310;52.796;6.942;2023-11-22T05:53:12;-0.10;99.90
52381;DHT22;38310;52.796;6.942;2023-11-22T05:55:37;-0.10;99.90
52381;DHT22;38310;52.796;6.942;2023-11-22T05:58:04;-0.20;99.90
52381;DHT22;38310;52.796;6.942;2023-11-22T06:00:30;-0.20;99.90
52381;DHT22;38310;52.796;6.942;2023-11-22T06:02:55;-0.30;99.90
52381;DHT22;38310;52.796;6.942;2023-11-22T06:05:21;-0.30;99.90
52381;DHT22;38310;52.796;6.942;2023-11-22T06:07:47;-0.30;99.90
52381;DHT22;38310;52.796;6.942;2023-11-22T06:10:13;-0.10;99.90
52381;DHT22;38310;52.796;6.942;2023-11-22T06:12:41;-0.20;99.90
52381;DHT22;38310;52.796;6.942;2023-11-22T06:15:07;0.20;99.90
52381;DHT22;38310;52.796;6.942;2023-11-22T06:17:33;-0.20;99.90
52381;DHT22;38310;52.796;6.942;2023-11-22T06:19:59;-0.20;99.90
52381;DHT22;38310;52.796;6.942;2023-11-22T06:22:26;-0.20;99.90
52381;DHT22;38310;52.796;6.942;2023-11-22T06:24:52;0.20;99.90
52381;DHT22;38310;52.796;6.942;2023-11-22T06:27:18;-0.20;99.90
52381;DHT22;38310;52.796;6.942;2023-11-22T06:29:43;-0.20;99.90
52381;DHT22;38310;52.796;6.942;2023-11-22T06:32:09;-0.10;99.90
52381;DHT22;38310;52.796;6.942;2023-11-22T06:34:36;-0.10;99.90
52381;DHT22;38310;52.796;6.942;2023-11-22T06:37:03;-0.10;99.90
52381;DHT22;38310;52.796;6.942;2023-11-22T06:39:28;-0.20;99.90
52381;DHT22;38310;52.796;6.942;2023-11-22T06:41:54;-0.20;99.90
52381;DHT22;38310;52.796;6.942;2023-11-22T06:44:20;-0.20;99.90
52381;DHT22;38310;52.796;6.942;2023-11-22T06:46:45;-0.10;99.90
52381;DHT22;38310;52.796;6.942;2023-11-22T06:49:11;-0.10;99.90
52381;DHT22;38310;52.796;6.942;2023-11-22T06:51:37;-0.10;99.90
52381;DHT22;38310;52.796;6.942;2023-11-22T06:54:05;-0.10;99.90
52381;DHT22;38310;52.796;6.942;2023-11-22T06:56:32;-0.10;99.90
52381;DHT22;38310;52.796;6.942;2023-11-22T06:58:58;0.90;99.90
52381;DHT22;38310;52.796;6.942;2023-11-22T07:01:24;-0.10;99.90
52381;DHT22;38310;52.796;6.942;2023-11-22T07:03:52;0.00;99.90
52381;DHT22;38310;52.796;6.942;2023-11-22T07:06:18;-0.10;99.90
52381;DHT22;38310;52.796;6.942;2023-11-22T07:08:44;0.00;99.90
52381;DHT22;38310;52.796;6.942;2023-11-22T07:11:11;0.30;99.90
52381;DHT22;38310;52.796;6.942;2023-11-22T07:13:37;2.00;99.90
52381;DHT22;38310;52.796;6.942;2023-11-22T07:16:06;0.00;99.90
52381;DHT22;38310;52.796;6.942;2023-11-22T07:18:32;1.20;99.90
52381;DHT22;38310;52.796;6.942;2023-11-22T07:20:59;0.00;99.90
52381;DHT22;38310;52.796;6.942;2023-11-22T07:23:25;1.90;99.90
52381;DHT22;38310;52.796;6.942;2023-11-22T07:25:55;1.40;99.90
52381;DHT22;38310;52.796;6.942;2023-11-22T07:28:21;0.10;99.90
52381;DHT22;38310;52.796;6.942;2023-11-22T07:30:47;1.00;99.90
52381;DHT22;38310;52.796;6.942;2023-11-22T07:33:14;0.00;99.90
52381;DHT22;38310;52.796;6.942;2023-11-22T07:35:44;0.20;99.90
52381;DHT22;38310;52.796;6.942;2023-11-22T07:38:11;0.20;99.90
52381;DHT22;38310;52.796;6.942;2023-11-22T07:40:37;1.00;99.90
52381;DHT22;38310;52.796;6.942;2023-11-22T07:43:03;0.40;99.90
52381;DHT22;38310;52.796;6.942;2023-11-22T07:45:31;2.00;99.90
52381;DHT22;38310;52.796;6.942;2023-11-22T07:47:57;0.40;99.90
52381;DHT22;38310;52.796;6.942;2023-11-22T07:50:26;0.40;99.90
52381;DHT22;38310;52.796;6.942;2023-11-22T07:52:52;0.60;99.90
52381;DHT22;38310;52.796;6.942;2023-11-22T07:55:17;0.60;99.90
52381;DHT22;38310;52.796;6.942;2023-11-22T07:57:44;1.50;99.90
52381;DHT22;38310;52.796;6.942;2023-11-22T08:00:11;1.00;99.90
52381;DHT22;38310;52.796;6.942;2023-11-22T08:02:38;1.90;99.90
52381;DHT22;38310;52.796;6.942;2023-11-22T08:05:08;0.70;99.90
52381;DHT22;38310;52.796;6.942;2023-11-22T08:07:37;0.80;99.90
52381;DHT22;38310;52.796;6.942;2023-11-22T08:10:07;0.80;99.90
52381;DHT22;38310;52.796;6.942;2023-11-22T08:12:43;0.90;99.90
52381;DHT22;38310;52.796;6.942;2023-11-22T08:15:10;1.00;99.90
52381;DHT22;38310;52.796;6.942;2023-11-22T08:17:38;1.80;99.90
52381;DHT22;38310;52.796;6.942;2023-11-22T08:20:08;1.00;99.90
52381;DHT22;38310;52.796;6.942;2023-11-22T08:22:41;1.10;99.90
52381;DHT22;38310;52.796;6.942;2023-11-22T08:25:08;1.10;99.90
52381;DHT22;38310;52.796;6.942;2023-11-22T08:27:34;1.10;99.90
52381;DHT22;38310;52.796;6.942;2023-11-22T08:30:00;1.60;99.90
52381;DHT22;38310;52.796;6.942;2023-11-22T08:32:33;2.60;99.90
52381;DHT22;38310;52.796;6.942;2023-11-22T08:34:59;1.30;99.90
52381;DHT22;38310;52.796;6.942;2023-11-22T08:37:25;1.30;99.90
52381;DHT22;38310;52.796;6.942;2023-11-22T08:39:50;1.50;99.90
52381;DHT22;38310;52.796;6.942;2023-11-22T08:42:18;1.50;99.90
52381;DHT22;38310;52.796;6.942;2023-11-22T08:44:43;1.60;99.90
52381;DHT22;38310;52.796;6.942;2023-11-22T08:47:09;1.50;99.90
52381;DHT22;38310;52.796;6.942;2023-11-22T08:49:35;2.30;99.90
52381;DHT22;38310;52.796;6.942;2023-11-22T08:52:00;3.30;99.90
52381;DHT22;38310;52.796;6.942;2023-11-22T08:54:28;3.00;99.90
52381;DHT22;38310;52.796;6.942;2023-11-22T08:56:55;2.40;99.90
52381;DHT22;38310;52.796;6.942;2023-11-22T08:59:25;1.70;99.90
52381;DHT22;38310;52.796;6.942;2023-11-22T09:01:52;1.90;99.90
52381;DHT22;38310;52.796;6.942;2023-11-22T09:04:17;1.90;99.90
52381;DHT22;38310;52.796;6.942;2023-11-22T09:06:44;2.90;99.90
52381;DHT22;38310;52.796;6.942;2023-11-22T09:09:09;2.20;99.90
52381;DHT22;38310;52.796;6.942;2023-11-22T09:11:41;2.00;99.90
52381;DHT22;38310;52.796;6.942;2023-11-22T09:14:06;2.00;99.90
52381;DHT22;38310;52.796;6.942;2023-11-22T09:16:38;2.10;99.90
52381;DHT22;38310;52.796;6.942;2023-11-22T09:19:05;3.00;99.90
52381;DHT22;38310;52.796;6.942;2023-11-22T09:21:33;2.30;99.90
52381;DHT22;38310;52.796;6.942;2023-11-22T09:23:59;2.40;99.90
52381;DHT22;38310;52.796;6.942;2023-11-22T09:26:25;2.30;99.90
52381;DHT22;38310;52.796;6.942;2023-11-22T09:28:51;2.30;99.90
52381;DHT22;38310;52.796;6.942;2023-11-22T09:31:16;2.40;99.90
52381;DHT22;38310;52.796;6.942;2023-11-22T09:33:46;3.60;99.90
52381;DHT22;38310;52.796;6.942;2023-11-22T09:36:12;2.40;99.90
52381;DHT22;38310;52.796;6.942;2023-11-22T09:38:39;3.80;99.90
52381;DHT22;38310;52.796;6.942;2023-11-22T09:41:04;2.90;99.90
52381;DHT22;38310;52.796;6.942;2023-11-22T09:43:31;2.50;99.90
52381;DHT22;38310;52.796;6.942;2023-11-22T09:45:57;3.30;99.90
52381;DHT22;38310;52.796;6.942;2023-11-22T09:48:24;2.60;99.90
52381;DHT22;38310;52.796;6.942;2023-11-22T09:54:04;2.80;99.90
52381;DHT22;38310;52.796;6.942;2023-11-22T09:56:33;2.70;99.90
52381;DHT22;38310;52.796;6.942;2023-11-22T09:59:03;4.50;99.90
52381;DHT22;38310;52.796;6.942;2023-11-22T10:01:30;2.80;99.90
52381;DHT22;38310;52.796;6.942;2023-11-22T10:04:03;2.80;99.90
52381;DHT22;38310;52.796;6.942;2023-11-22T10:06:34;2.80;99.90
52381;DHT22;38310;52.796;6.942;2023-11-22T10:09:04;2.90;99.90
52381;DHT22;38310;52.796;6.942;2023-11-22T10:11:36;2.90;99.90
52381;DHT22;38310;52.796;6.942;2023-11-22T10:14:04;4.20;99.90
52381;DHT22;38310;52.796;6.942;2023-11-22T10:16:30;3.20;99.90
52381;DHT22;38310;52.796;6.942;2023-11-22T10:18:57;2.90;99.90
52381;DHT22;38310;52.796;6.942;2023-11-22T10:21:28;2.90;99.90
52381;DHT22;38310;52.796;6.942;2023-11-22T10:24:02;3.00;99.90
52381;DHT22;38310;52.796;6.942;2023-11-22T10:26:28;3.10;99.90
52381;DHT22;38310;52.796;6.942;2023-11-22T10:28:55;3.00;99.90
52381;DHT22;38310;52.796;6.942;2023-11-22T10:31:22;3.10;99.90
52381;DHT22;38310;52.796;6.942;2023-11-22T10:33:49;3.10;99.90
52381;DHT22;38310;52.796;6.942;2023-11-22T10:36:15;3.10;99.90
52381;DHT22;38310;52.796;6.942;2023-11-22T10:38:45;3.30;99.90
52381;DHT22;38310;52.796;6.942;2023-11-22T10:41:12;3.40;99.90
52381;DHT22;38310;52.796;6.942;2023-11-22T10:43:40;3.30;99.90
52381;DHT22;38310;52.796;6.942;2023-11-22T10:46:07;3.40;99.90
52381;DHT22;38310;52.796;6.942;2023-11-22T10:48:36;3.50;99.90
52381;DHT22;38310;52.796;6.942;2023-11-22T10:51:04;5.00;99.90
52381;DHT22;38310;52.796;6.942;2023-11-22T10:53:36;4.50;99.90
52381;DHT22;38310;52.796;6.942;2023-11-22T10:56:12;3.70;99.90
52381;DHT22;38310;52.796;6.942;2023-11-22T10:58:49;3.70;99.90
52381;DHT22;38310;52.796;6.942;2023-11-22T11:01:16;3.80;99.90
52381;DHT22;38310;52.796;6.942;2023-11-22T11:03:46;4.30;99.90
52381;DHT22;38310;52.796;6.942;2023-11-22T11:06:15;2.50;99.90
52381;DHT22;38310;52.796;6.942;2023-11-22T11:08:45;4.50;99.90
52381;DHT22;38310;52.796;6.942;2023-11-22T11:11:11;3.80;99.90
52381;DHT22;38310;52.796;6.942;2023-11-22T11:13:40;3.70;99.90
52381;DHT22;38310;52.796;6.942;2023-11-22T11:16:08;3.90;99.90
52381;DHT22;38310;52.796;6.942;2023-11-22T11:18:35;3.90;99.90
52381;DHT22;38310;52.796;6.942;2023-11-22T11:21:08;4.10;99.90
52381;DHT22;38310;52.796;6.942;2023-11-22T11:23:34;4.10;99.90
52381;DHT22;38310;52.796;6.942;2023-11-22T11:26:18;4.20;99.90
52381;DHT22;38310;52.796;6.942;2023-11-22T11:28:50;4.40;99.90
52381;DHT22;38310;52.796;6.942;2023-11-22T11:31:16;4.60;99.90
52381;DHT22;38310;52.796;6.942;2023-11-22T11:36:31;5.20;99.90
52381;DHT22;38310;52.796;6.942;2023-11-22T11:39:02;6.20;99.90
52381;DHT22;38310;52.796;6.942;2023-11-22T11:41:32;5.40;99.90
52381;DHT22;38310;52.796;6.942;2023-11-22T11:44:01;5.80;99.90
52381;DHT22;38310;52.796;6.942;2023-11-22T11:46:29;5.30;99.90
52381;DHT22;38310;52.796;6.942;2023-11-22T11:48:56;5.60;99.90
52381;DHT22;38310;52.796;6.942;2023-11-22T11:51:26;6.00;99.90
52381;DHT22;38310;52.796;6.942;2023-11-22T11:53:53;5.80;99.90
52381;DHT22;38310;52.796;6.942;2023-11-22T11:56:19;5.70;99.90
52381;DHT22;38310;52.796;6.942;2023-11-22T11:58:46;5.80;99.90
52381;DHT22;38310;52.796;6.942;2023-11-22T12:01:16;6.10;99.90
52381;DHT22;38310;52.796;6.942;2023-11-22T12:03:43;6.50;99.90
52381;DHT22;38310;52.796;6.942;2023-11-22T12:06:09;6.40;99.90
52381;DHT22;38310;52.796;6.942;2023-11-22T12:08:35;6.30;99.90
52381;DHT22;38310;52.796;6.942;2023-11-22T12:11:05;6.50;99.90
52381;DHT22;38310;52.796;6.942;2023-11-22T12:13:34;6.60;99.90
52381;DHT22;38310;52.796;6.942;2023-11-22T12:16:01;8.00;99.90
52381;DHT22;38310;52.796;6.942;2023-11-22T12:18:29;6.90;99.90
52381;DHT22;38310;52.796;6.942;2023-11-22T12:20:59;6.80;99.90
52381;DHT22;38310;52.796;6.942;2023-11-22T12:23:26;6.90;99.90
52381;DHT22;38310;52.796;6.942;2023-11-22T12:26:01;7.00;99.90
52381;DHT22;38310;52.796;6.942;2023-11-22T12:28:27;6.70;99.90
52381;DHT22;38310;52.796;6.942;2023-11-22T12:30:53;6.90;99.90
52381;DHT22;38310;52.796;6.942;2023-11-22T12:33:19;5.40;99.90
52381;DHT22;38310;52.796;6.942;2023-11-22T12:35:46;6.30;99.90
52381;DHT22;38310;52.796;6.942;2023-11-22T12:38:12;6.10;99.90
52381;DHT22;38310;52.796;6.942;2023-11-22T12:40:42;5.90;99.90
52381;DHT22;38310;52.796;6.942;2023-11-22T12:43:08;5.80;99.90
52381;DHT22;38310;52.796;6.942;2023-11-22T12:45:35;5.80;99.90
52381;DHT22;38310;52.796;6.942;2023-11-22T12:48:23;5.70;99.90
52381;DHT22;38310;52.796;6.942;2023-11-22T12:50:50;6.60;99.90
52381;DHT22;38310;52.796;6.942;2023-11-22T12:53:16;5.70;99.90
52381;DHT22;38310;52.796;6.942;2023-11-22T12:55:46;5.60;99.90
52381;DHT22;38310;52.796;6.942;2023-11-22T12:58:18;5.70;99.90
52381;DHT22;38310;52.796;6.942;2023-11-22T13:00:45;5.60;99.90
52381;DHT22;38310;52.796;6.942;2023-11-22T13:03:12;5.70;99.90
52381;DHT22;38310;52.796;6.942;2023-11-22T13:05:42;5.50;99.90
52381;DHT22;38310;52.796;6.942;2023-11-22T13:08:09;5.50;99.90
52381;DHT22;38310;52.796;6.942;2023-11-22T13:10:45;5.50;99.90
52381;DHT22;38310;52.796;6.942;2023-11-22T13:13:13;5.40;99.90
52381;DHT22;38310;52.796;6.942;2023-11-22T13:15:39;6.20;99.90
52381;DHT22;38310;52.796;6.942;2023-11-22T13:18:06;5.40;99.90
52381;DHT22;38310;52.796;6.942;2023-11-22T13:20:35;5.40;99.90
52381;DHT22;38310;52.796;6.942;2023-11-22T13:23:01;5.40;99.90
52381;DHT22;38310;52.796;6.942;2023-11-22T13:25:28;5.40;99.90
52381;DHT22;38310;52.796;6.942;2023-11-22T13:27:54;5.40;99.90
52381;DHT22;38310;52.796;6.942;2023-11-22T13:30:22;5.70;99.90
52381;DHT22;38310;52.796;6.942;2023-11-22T13:32:49;5.40;99.90
52381;DHT22;38310;52.796;6.942;2023-11-22T13:35:15;5.30;99.90
52381;DHT22;38310;52.796;6.942;2023-11-22T13:37:43;5.30;99.90
52381;DHT22;38310;52.796;6.942;2023-11-22T13:40:17;5.60;99.90
52381;DHT22;38310;52.796;6.942;2023-11-22T13:42:44;5.30;99.90
52381;DHT22;38310;52.796;6.942;2023-11-22T13:45:13;5.30;99.90
52381;DHT22;38310;52.796;6.942;2023-11-22T13:47:48;5.30;99.90
52381;DHT22;38310;52.796;6.942;2023-11-22T13:50:15;6.40;99.90
52381;DHT22;38310;52.796;6.942;2023-11-22T13:52:50;5.30;99.90
52381;DHT22;38310;52.796;6.942;2023-11-22T13:55:16;5.20;99.90
52381;DHT22;38310;52.796;6.942;2023-11-22T13:57:48;5.50;99.90
52381;DHT22;38310;52.796;6.942;2023-11-22T14:00:14;5.10;99.90
52381;DHT22;38310;52.796;6.942;2023-11-22T14:02:47;5.10;99.90
52381;DHT22;38310;52.796;6.942;2023-11-22T14:05:13;5.20;99.90
52381;DHT22;38310;52.796;6.942;2023-11-22T14:07:41;5.10;99.90
52381;DHT22;38310;52.796;6.942;2023-11-22T14:10:07;5.10;99.90
52381;DHT22;38310;52.796;6.942;2023-11-22T14:12:34;5.10;99.90
52381;DHT22;38310;52.796;6.942;2023-11-22T14:15:01;5.90;99.90
52381;DHT22;38310;52.796;6.942;2023-11-22T14:17:27;5.20;99.90
52381;DHT22;38310;52.796;6.942;2023-11-22T14:19:53;5.20;99.90
52381;DHT22;38310;52.796;6.942;2023-11-22T14:22:21;5.00;99.90
52381;DHT22;38310;52.796;6.942;2023-11-22T14:24:48;5.00;99.90
52381;DHT22;38310;52.796;6.942;2023-11-22T14:27:14;5.30;99.90
52381;DHT22;38310;52.796;6.942;2023-11-22T14:29:40;5.40;99.90
52381;DHT22;38310;52.796;6.942;2023-11-22T14:32:08;5.10;99.90
52381;DHT22;38310;52.796;6.942;2023-11-22T14:34:34;5.10;99.90
52381;DHT22;38310;52.796;6.942;2023-11-22T14:36:59;5.00;99.90
52381;DHT22;38310;52.796;6.942;2023-11-22T14:39:25;6.10;99.90
52381;DHT22;38310;52.796;6.942;2023-11-22T14:41:52;5.00;99.90
52381;DHT22;38310;52.796;6.942;2023-11-22T14:44:19;5.10;99.90
52381;DHT22;38310;52.796;6.942;2023-11-22T14:46:45;5.00;99.90
52381;DHT22;38310;52.796;6.942;2023-11-22T14:49:11;5.00;99.90
52381;DHT22;38310;52.796;6.942;2023-11-22T14:51:37;5.00;99.90
52381;DHT22;38310;52.796;6.942;2023-11-22T14:54:04;5.00;99.90
52381;DHT22;38310;52.796;6.942;2023-11-22T14:56:29;5.00;99.90
52381;DHT22;38310;52.796;6.942;2023-11-22T14:58:55;5.90;99.90
52381;DHT22;38310;52.796;6.942;2023-11-22T15:01:21;4.90;99.90
52381;DHT22;38310;52.796;6.942;2023-11-22T15:03:47;4.90;99.90
52381;DHT22;38310;52.796;6.942;2023-11-22T15:06:15;4.90;99.90
52381;DHT22;38310;52.796;6.942;2023-11-22T15:08:41;4.80;99.90
52381;DHT22;38310;52.796;6.942;2023-11-22T15:11:07;5.40;99.90
52381;DHT22;38310;52.796;6.942;2023-11-22T15:13:34;4.70;99.90
52381;DHT22;38310;52.796;6.942;2023-11-22T15:16:01;5.70;99.90
52381;DHT22;38310;52.796;6.942;2023-11-22T15:18:27;4.70;99.90
52381;DHT22;38310;52.796;6.942;2023-11-22T15:20:53;4.60;99.90
52381;DHT22;38310;52.796;6.942;2023-11-22T15:23:19;5.10;99.90
52381;DHT22;38310;52.796;6.942;2023-11-22T15:25:47;5.00;99.90
52381;DHT22;38310;52.796;6.942;2023-11-22T15:28:14;4.50;99.90
52381;DHT22;38310;52.796;6.942;2023-11-22T15:30:47;4.80;99.90
52381;DHT22;38310;52.796;6.942;2023-11-22T15:33:15;3.20;99.90
52381;DHT22;38310;52.796;6.942;2023-11-22T15:35:41;4.50;99.90
52381;DHT22;38310;52.796;6.942;2023-11-22T15:38:07;4.60;99.90
52381;DHT22;38310;52.796;6.942;2023-11-22T15:40:33;4.50;99.90
52381;DHT22;38310;52.796;6.942;2023-11-22T15:42:58;4.50;99.90
52381;DHT22;38310;52.796;6.942;2023-11-22T15:45:24;4.70;99.90
52381;DHT22;38310;52.796;6.942;2023-11-22T15:47:50;4.50;99.90
52381;DHT22;38310;52.796;6.942;2023-11-22T15:50:16;4.50;99.90
52381;DHT22;38310;52.796;6.942;2023-11-22T15:52:42;4.60;99.90